createdAt,value
2023-05-05T00:00:00.138Z, 78.4
2023-05-05T00:02:00.176Z, 78.7
2023-05-05T00:04:00.279Z, 78.3
2023-05-05T00:06:00.128Z, 77.9
2023-05-05T00:08:00.116Z, 78.1
2023-05-05T00:10:00.149Z, 78.1
2023-05-05T00:12:00.138Z, 77.8
2023-05-05T00:14:00.140Z, 77.7
2023-05-05T00:16:00.110Z, 77.3
2023-05-05T00:18:00.228Z, 77.2
2023-05-05T00:20:00.150Z, 77
2023-05-05T00:22:00.067Z, 76.8
2023-05-05T00:24:00.044Z, 76.7
2023-05-05T00:26:00.049Z, 76.5
2023-05-05T00:28:00.046Z, 76.3
2023-05-05T00:30:00.072Z, 75.9
2023-05-05T00:32:00.045Z, 75.8
2023-05-05T00:34:00.058Z, 75.6
2023-05-05T00:36:00.081Z, 75
2023-05-05T00:38:00.068Z, 74.7
2023-05-05T00:40:00.044Z, 75.1
2023-05-05T00:42:00.072Z, 75.3
2023-05-05T00:44:00.044Z, 75.5
2023-05-05T00:46:00.081Z, 75.4
2023-05-05T00:48:00.121Z, 75.5
2023-05-05T00:50:00.049Z, 75.7
2023-05-05T00:52:00.097Z, 75.8
2023-05-05T00:54:00.138Z, 75.6
2023-05-05T00:56:00.127Z, 76.1
2023-05-05T00:58:00.144Z, 75.7
2023-05-05T01:00:00.210Z, 75.7
2023-05-05T01:02:00.230Z, 77.2
2023-05-05T01:04:00.274Z, 76.9
2023-05-05T01:06:00.151Z, 76.5
2023-05-05T01:08:00.158Z, 77.3
2023-05-05T01:10:15.068Z, 77.1
2023-05-05T01:12:00.119Z, 75
2023-05-05T01:14:00.133Z, 75.8
2023-05-05T01:16:00.124Z, 77.1
2023-05-05T01:18:00.157Z, 76.7
2023-05-05T01:20:00.132Z, 75.8
2023-05-05T01:22:00.074Z, 78.2
2023-05-05T01:24:00.097Z, 80.9
2023-05-05T01:26:00.091Z, 82.9
2023-05-05T01:28:00.071Z, 84
2023-05-05T01:30:00.073Z, 84.7
2023-05-05T01:32:00.149Z, 84.6
2023-05-05T01:34:00.051Z, 83.5
2023-05-05T01:36:00.059Z, 82.7
2023-05-05T01:38:00.044Z, 83.3
2023-05-05T01:40:00.054Z, 84.5
2023-05-05T01:42:00.043Z, 85.9
2023-05-05T01:44:00.051Z, 86.7
2023-05-05T01:46:00.087Z, 86.7
2023-05-05T01:48:00.120Z, 85.9
2023-05-05T01:50:00.047Z, 84.7
2023-05-05T01:52:00.131Z, 85
2023-05-05T01:54:00.124Z, 86.2
2023-05-05T01:56:00.136Z, 86.6
2023-05-05T01:58:00.116Z, 86.8
2023-05-05T02:00:00.125Z, 86.9
2023-05-05T02:02:00.263Z, 86.5
2023-05-05T02:04:00.106Z, 85.7
2023-05-05T02:06:00.119Z, 85.5
2023-05-05T02:08:00.177Z, 85.1
2023-05-05T02:10:00.196Z, 84.1
2023-05-05T02:12:00.120Z, 83.2
2023-05-05T02:14:00.214Z, 83
2023-05-05T02:16:00.171Z, 82.9
2023-05-05T02:18:00.185Z, 83.2
2023-05-05T02:20:00.150Z, 84.1
2023-05-05T02:22:00.077Z, 86
2023-05-05T02:24:00.083Z, 87.6
2023-05-05T02:26:00.052Z, 87.8
2023-05-05T02:28:00.043Z, 87
2023-05-05T02:30:00.070Z, 86.5
2023-05-05T02:32:00.049Z, 86.1
2023-05-05T02:34:00.053Z, 85.3
2023-05-05T02:36:00.103Z, 84.7
2023-05-05T02:38:00.085Z, 84.9
2023-05-05T02:40:00.078Z, 84.7
2023-05-05T02:42:00.073Z, 84.7
2023-05-05T02:44:00.074Z, 84.7
2023-05-05T02:46:00.094Z, 84.2
2023-05-05T02:48:00.073Z, 84.1
2023-05-05T02:50:00.045Z, 83.6
2023-05-05T02:52:00.106Z, 83.2
2023-05-05T02:54:00.120Z, 82.6
2023-05-05T02:56:00.137Z, 82.3
2023-05-05T02:58:00.133Z, 82.2
2023-05-05T03:00:00.125Z, 81.8
2023-05-05T03:02:00.230Z, 81.6
2023-05-05T03:04:00.140Z, 81.8
2023-05-05T03:06:00.157Z, 81.5
2023-05-05T03:08:00.131Z, 80.7
2023-05-05T03:10:00.171Z, 80.4
2023-05-05T03:12:00.109Z, 79.7
2023-05-05T03:14:00.118Z, 79.4
2023-05-05T03:16:00.165Z, 79.7
2023-05-05T03:18:00.144Z, 80.3
2023-05-05T03:20:04.804Z, 80.9
2023-05-05T03:22:00.076Z, 81.5
2023-05-05T03:24:00.079Z, 82.6
2023-05-05T03:26:00.067Z, 84.3
2023-05-05T03:28:00.074Z, 86.1
2023-05-05T03:30:00.072Z, 87.8
2023-05-05T03:32:00.124Z, 88.4
2023-05-05T03:34:00.054Z, 88.3
2023-05-05T03:36:00.064Z, 87.4
2023-05-05T03:38:00.046Z, 86.5
2023-05-05T03:40:00.065Z, 85
2023-05-05T03:42:00.076Z, 84.1
2023-05-05T03:44:00.056Z, 82.4
2023-05-05T03:46:00.077Z, 81.8
2023-05-05T03:48:00.153Z, 81.6
2023-05-05T03:50:00.045Z, 82
2023-05-05T03:52:00.107Z, 80.2
2023-05-05T03:54:00.150Z, 79.7
2023-05-05T03:56:00.159Z, 79.9
2023-05-05T03:58:00.134Z, 79.4
2023-05-05T04:00:00.155Z, 78.9
2023-05-05T04:02:00.135Z, 78.1
2023-05-05T04:04:00.168Z, 77.7
2023-05-05T04:06:00.146Z, 77.5
2023-05-05T04:08:00.145Z, 77.6
2023-05-05T04:10:00.143Z, 77.7
2023-05-05T04:12:00.103Z, 78.3
2023-05-05T04:14:00.102Z, 79.4
2023-05-05T04:16:00.194Z, 80.1
2023-05-05T04:18:00.198Z, 80
2023-05-05T04:20:00.153Z, 80.2
2023-05-05T04:22:00.113Z, 80.5
2023-05-05T04:24:00.071Z, 81.2
2023-05-05T04:26:00.136Z, 81.9
2023-05-05T04:28:00.065Z, 82.1
2023-05-05T04:30:00.101Z, 81.8
2023-05-05T04:32:00.080Z, 81.2
2023-05-05T04:34:00.089Z, 81
2023-05-05T04:36:00.089Z, 80.4
2023-05-05T04:38:00.059Z, 80.4
2023-05-05T04:40:00.066Z, 80.4
2023-05-05T04:42:00.088Z, 80.9
2023-05-05T04:44:00.084Z, 81.5
2023-05-05T04:46:00.075Z, 82.2
2023-05-05T04:48:00.120Z, 82.8
2023-05-05T04:50:00.095Z, 83
2023-05-05T04:52:00.091Z, 82.8
2023-05-05T04:54:00.145Z, 82.8
2023-05-05T04:56:00.118Z, 82.7
2023-05-05T04:58:00.130Z, 83
2023-05-05T05:00:00.163Z, 83.6
2023-05-05T05:02:00.178Z, 83.9
2023-05-05T05:04:00.291Z, 83.7
2023-05-05T05:06:00.129Z, 82.4
2023-05-05T05:08:00.142Z, 80.4
2023-05-05T05:10:00.166Z, 78.1
2023-05-05T05:12:00.121Z, 76
2023-05-05T05:14:00.120Z, 75.1
2023-05-05T05:16:00.160Z, 76.9
2023-05-05T05:18:00.209Z, 77.7
2023-05-05T05:20:00.226Z, 77
2023-05-05T05:22:00.065Z, 75.4
2023-05-05T05:24:00.066Z, 73.3
2023-05-05T05:26:00.040Z, 70.4
2023-05-05T05:28:09.616Z, 67.7
2023-05-05T05:30:00.048Z, 67.8
2023-05-05T05:32:00.115Z, 70.8
2023-05-05T05:34:00.042Z, 75.1
2023-05-05T05:36:00.037Z, 77
2023-05-05T05:38:00.038Z, 77.1
2023-05-05T05:40:00.052Z, 76.6
2023-05-05T05:42:00.049Z, 76.9
2023-05-05T05:44:00.082Z, 75.5
2023-05-05T05:46:00.092Z, 73.4
2023-05-05T05:48:00.122Z, 72.6
2023-05-05T05:50:00.063Z, 71
2023-05-05T05:52:00.092Z, 69
2023-05-05T05:54:00.139Z, 66.6
2023-05-05T05:56:00.115Z, 65.2
2023-05-05T05:58:00.145Z, 64.9
2023-05-05T06:00:01.971Z, 62.7
2023-05-05T06:02:00.143Z, 60.7
2023-05-05T06:04:00.239Z, 59.8
2023-05-05T06:06:00.134Z, 59
2023-05-05T06:08:00.109Z, 58.2
2023-05-05T06:10:02.984Z, 58.4
2023-05-05T06:12:00.111Z, 58.8
2023-05-05T06:14:00.152Z, 58.6
2023-05-05T06:16:00.176Z, 57.7
2023-05-05T06:18:00.206Z, 56.3
2023-05-05T06:20:00.147Z, 55.8
2023-05-05T06:22:00.064Z, 54.5
2023-05-05T06:24:00.076Z, 54.3
2023-05-05T06:26:00.093Z, 53.7
2023-05-05T06:28:00.072Z, 55.3
2023-05-05T06:30:00.050Z, 54.9
2023-05-05T06:32:00.008Z, 55.1
2023-05-05T06:33:59.986Z, 55.7
2023-05-05T06:35:59.991Z, 55
2023-05-05T06:38:00.005Z, 55
2023-05-05T06:40:00.058Z, 55.8
2023-05-05T06:42:00.057Z, 54.8
2023-05-05T06:44:00.044Z, 54.7
2023-05-05T06:46:00.053Z, 55.3
2023-05-05T06:48:00.198Z, 57.2
2023-05-05T06:50:00.055Z, 58.6
2023-05-05T06:52:00.114Z, 60.5
2023-05-05T06:54:00.150Z, 61.5
2023-05-05T06:56:00.100Z, 63.3
2023-05-05T06:58:00.123Z, 64.4
2023-05-05T07:00:00.142Z, 64.6
2023-05-05T07:02:00.127Z, 65
2023-05-05T07:04:00.162Z, 62.6
2023-05-05T07:06:00.104Z, 60.8
2023-05-05T07:08:00.100Z, 59.6
2023-05-05T07:10:00.139Z, 61.1
2023-05-05T07:12:00.194Z, 63.7
2023-05-05T07:14:00.441Z, 63.8
2023-05-05T07:16:00.133Z, 63.7
2023-05-05T07:18:00.190Z, 63.4
2023-05-05T07:20:00.145Z, 64.3
2023-05-05T07:22:00.098Z, 65
2023-05-05T07:24:00.067Z, 64.2
2023-05-05T07:26:00.067Z, 64.7
2023-05-05T07:28:00.040Z, 66
2023-05-05T07:30:00.076Z, 65.4
2023-05-05T07:32:00.226Z, 65.2
2023-05-05T07:34:00.051Z, 67.1
2023-05-05T07:36:00.060Z, 65
2023-05-05T07:38:00.052Z, 65.4
2023-05-05T07:40:00.053Z, 63.5
2023-05-05T07:42:00.057Z, 63.2
2023-05-05T07:44:00.045Z, 62.1
2023-05-05T07:46:00.095Z, 62
2023-05-05T07:48:00.072Z, 61.6
2023-05-05T07:50:00.055Z, 59.6
2023-05-05T07:52:00.107Z, 57
2023-05-05T07:54:00.113Z, 57.6
2023-05-05T07:56:00.153Z, 59.6
2023-05-05T07:58:00.119Z, 59.1
2023-05-05T08:00:00.152Z, 59
2023-05-05T08:02:00.110Z, 59.1
2023-05-05T08:04:00.166Z, 59.2
2023-05-05T08:06:00.115Z, 59.2
2023-05-05T08:08:00.112Z, 60.3
2023-05-05T08:10:00.141Z, 59.6
2023-05-05T08:12:00.145Z, 60.7
2023-05-05T08:14:00.120Z, 59.2
2023-05-05T08:16:00.164Z, 58.2
2023-05-05T08:18:00.193Z, 56.1
2023-05-05T08:20:00.172Z, 54.3
2023-05-05T08:22:01.232Z, 53.7
2023-05-05T08:24:00.089Z, 56.1
2023-05-05T08:26:00.057Z, 57
2023-05-05T08:28:00.056Z, 56
2023-05-05T08:30:00.065Z, 57.2
2023-05-05T08:32:00.280Z, 55.1
2023-05-05T08:34:00.064Z, 55.8
2023-05-05T08:36:00.095Z, 54.9
2023-05-05T08:38:00.046Z, 55.3
2023-05-05T08:40:00.253Z, 55
2023-05-05T08:42:00.060Z, 53
2023-05-05T08:44:00.055Z, 50.9
2023-05-05T08:46:00.052Z, 51.3
2023-05-05T08:48:00.105Z, 52.5
2023-05-05T08:50:00.030Z, 53.9
2023-05-05T08:52:00.110Z, 55.1
2023-05-05T08:54:00.174Z, 53.9
2023-05-05T08:56:00.151Z, 53.5
2023-05-05T08:58:00.176Z, 53.3
2023-05-05T09:00:00.193Z, 54.2
2023-05-05T09:05:30.122Z, 54.2
2023-05-05T09:05:30.181Z, 54.2
2023-05-05T09:06:00.136Z, 55.5
2023-05-05T09:08:00.073Z, 53.1
2023-05-05T09:10:00.076Z, 52.7
2023-05-05T09:12:00.093Z, 54.6
2023-05-05T09:14:00.064Z, 53.7
2023-05-05T09:16:00.103Z, 55.4
2023-05-05T09:18:00.121Z, 54.5
2023-05-05T09:20:00.101Z, 50.8
2023-05-05T09:22:00.087Z, 52.3
2023-05-05T09:24:07.382Z, 54.9
2023-05-05T09:26:00.056Z, 52.9
2023-05-05T09:28:00.047Z, 53.3
2023-05-05T09:30:00.055Z, 53.3
2023-05-05T09:32:00.043Z, 51
2023-05-05T09:34:00.037Z, 50.2
2023-05-05T09:36:00.053Z, 50.3
2023-05-05T09:38:00.032Z, 49.4
2023-05-05T09:40:00.045Z, 50.4
2023-05-05T09:42:00.046Z, 48.9
2023-05-05T09:44:00.034Z, 51.5
2023-05-05T09:46:00.077Z, 52.2
2023-05-05T09:48:00.732Z, 52.6
2023-05-05T09:50:00.047Z, 51.5
2023-05-05T09:52:00.134Z, 53
2023-05-05T09:54:00.152Z, 50.3
2023-05-05T09:56:00.108Z, 50.6
2023-05-05T09:58:00.206Z, 50.9
2023-05-05T10:00:00.131Z, 48.8
2023-05-05T10:02:00.155Z, 47.6
2023-05-05T10:04:00.090Z, 48.7
2023-05-05T10:06:00.102Z, 47.9
2023-05-05T10:08:00.113Z, 48.9
2023-05-05T10:10:00.205Z, 49.1
2023-05-05T10:12:00.159Z, 50.1
2023-05-05T10:14:00.159Z, 49.5
2023-05-05T10:16:00.146Z, 48.6
2023-05-05T10:18:07.500Z, 47.4
2023-05-05T10:20:00.149Z, 46.9
2023-05-05T10:22:00.089Z, 46.3
2023-05-05T10:24:00.057Z, 46.8
2023-05-05T10:26:00.048Z, 45.5
2023-05-05T10:28:00.035Z, 47.5
2023-05-05T10:30:00.069Z, 46.9
2023-05-05T10:32:00.079Z, 48.2
2023-05-05T10:34:00.329Z, 47.6
2023-05-05T10:36:00.044Z, 47.2
2023-05-05T10:38:00.055Z, 49.6
2023-05-05T10:40:00.071Z, 49.3
2023-05-05T10:42:00.075Z, 50.1
2023-05-05T10:44:02.178Z, 52.5
2023-05-05T10:46:00.101Z, 48.2
2023-05-05T10:48:00.141Z, 49.3
2023-05-05T10:50:00.064Z, 46.9
2023-05-05T10:52:00.082Z, 46.6
2023-05-05T10:54:00.169Z, 46.9
2023-05-05T10:56:00.105Z, 46.6
2023-05-05T10:58:00.125Z, 51.2
2023-05-05T11:00:00.176Z, 49.9
2023-05-05T11:02:00.086Z, 49.6
2023-05-05T11:04:00.179Z, 49.8
2023-05-05T11:06:00.130Z, 47.4
2023-05-05T11:08:00.095Z, 48.2
2023-05-05T11:10:00.179Z, 46.1
2023-05-05T11:12:00.084Z, 44.9
2023-05-05T11:14:00.144Z, 43.9
2023-05-05T11:16:00.122Z, 44.6
2023-05-05T11:18:00.163Z, 44.1
2023-05-05T11:20:00.157Z, 44.1
2023-05-05T11:22:00.077Z, 45.2
2023-05-05T11:24:00.063Z, 42.5
2023-05-05T11:26:00.061Z, 44.8
2023-05-05T11:28:00.088Z, 44.6
2023-05-05T11:30:00.118Z, 43.9
2023-05-05T11:32:00.045Z, 45.2
2023-05-05T11:34:00.049Z, 44.8
2023-05-05T11:36:00.046Z, 43.1
2023-05-05T11:38:00.049Z, 42.1
2023-05-05T11:40:00.066Z, 42.1
2023-05-05T11:42:00.064Z, 39.1
2023-05-05T11:44:00.045Z, 40.4
2023-05-05T11:46:00.102Z, 39.8
2023-05-05T11:48:00.209Z, 40.7
2023-05-05T11:50:00.067Z, 42.5
2023-05-05T11:52:00.135Z, 40.1
2023-05-05T11:54:00.109Z, 41.2
2023-05-05T11:56:00.123Z, 41.8
2023-05-05T11:58:00.130Z, 38.7
2023-05-05T12:00:00.133Z, 40
2023-05-05T12:02:00.124Z, 39.3
2023-05-05T12:04:00.287Z, 41
2023-05-05T12:06:00.143Z, 43.9
2023-05-05T12:08:00.149Z, 44.3
2023-05-05T12:10:00.168Z, 43.2
2023-05-05T12:12:00.130Z, 38.9
2023-05-05T12:14:00.113Z, 40.2
2023-05-05T12:16:00.171Z, 40.4
2023-05-05T12:18:02.336Z, 38.8
2023-05-05T12:20:00.129Z, 39.2
2023-05-05T12:22:00.076Z, 40
2023-05-05T12:24:00.085Z, 39.5
2023-05-05T12:26:00.070Z, 39.3
2023-05-05T12:28:00.061Z, 39.6
2023-05-05T12:30:00.057Z, 42.1
2023-05-05T12:32:00.166Z, 37.7
2023-05-05T12:34:00.088Z, 40.6
2023-05-05T12:36:00.059Z, 37.3
2023-05-05T12:38:00.046Z, 36
2023-05-05T12:40:00.073Z, 34.9
2023-05-05T12:42:00.061Z, 37
2023-05-05T12:44:00.041Z, 37.4
2023-05-05T12:46:00.115Z, 37.3
2023-05-05T12:48:00.155Z, 37.6
2023-05-05T12:50:00.047Z, 37.2
2023-05-05T12:52:00.120Z, 38.8
2023-05-05T12:54:00.106Z, 38.1
2023-05-05T12:56:00.135Z, 39
2023-05-05T12:58:00.126Z, 38.1
2023-05-05T13:00:00.162Z, 39.4
2023-05-05T13:02:00.229Z, 40
2023-05-05T13:04:00.119Z, 38.8
2023-05-05T13:06:00.154Z, 37.3
2023-05-05T13:08:00.140Z, 37.6
2023-05-05T13:10:00.185Z, 39
2023-05-05T13:12:00.127Z, 41.7
2023-05-05T13:14:00.118Z, 43.4
2023-05-05T13:16:00.168Z, 43.2
2023-05-05T13:18:00.268Z, 42.1
2023-05-05T13:20:00.132Z, 43.9
2023-05-05T13:22:00.076Z, 44.6
2023-05-05T13:24:16.244Z, 44.3
2023-05-05T13:26:00.062Z, 44.7
2023-05-05T13:28:00.071Z, 47
2023-05-05T13:30:00.076Z, 40.9
2023-05-05T13:32:00.067Z, 42
2023-05-05T13:34:00.069Z, 42.7
2023-05-05T13:36:00.048Z, 40.3
2023-05-05T13:38:00.059Z, 41.7
2023-05-05T13:40:00.058Z, 43.5
2023-05-05T13:42:00.058Z, 43.1
2023-05-05T13:44:00.064Z, 42.5
2023-05-05T13:46:12.154Z, 43.7
2023-05-05T13:48:00.128Z, 41
2023-05-05T13:50:00.050Z, 42.1
2023-05-05T13:52:00.161Z, 42.2
2023-05-05T13:54:00.114Z, 41.9
2023-05-05T13:56:00.125Z, 40.4
2023-05-05T13:58:00.112Z, 41.2
2023-05-05T14:00:00.150Z, 40.6
2023-05-05T14:02:00.098Z, 41.7
2023-05-05T14:04:02.072Z, 41.7
2023-05-05T14:06:00.136Z, 40.7
2023-05-05T14:08:00.119Z, 42.8
2023-05-05T14:10:00.165Z, 42.5
2023-05-05T14:12:00.133Z, 43
2023-05-05T14:14:00.165Z, 41.8
2023-05-05T14:16:00.251Z, 43.1
2023-05-05T14:18:00.174Z, 43.2
2023-05-05T14:20:00.171Z, 44.2
2023-05-05T14:22:00.073Z, 44
2023-05-05T14:24:00.060Z, 44.5
2023-05-05T14:26:00.048Z, 44.8
2023-05-05T14:28:00.025Z, 45.2
2023-05-05T14:30:00.060Z, 45
2023-05-05T14:32:00.105Z, 45.1
2023-05-05T14:34:00.057Z, 45.9
2023-05-05T14:36:00.095Z, 45.5
2023-05-05T14:38:00.047Z, 46.5
2023-05-05T14:40:00.052Z, 46.6
2023-05-05T14:42:00.056Z, 47.5
2023-05-05T14:44:00.042Z, 51.3
2023-05-05T14:46:00.120Z, 53.7
2023-05-05T14:48:00.110Z, 55.2
2023-05-05T14:50:00.046Z, 56.2
2023-05-05T14:52:00.142Z, 56.8
2023-05-05T14:54:00.127Z, 56.5
2023-05-05T14:56:00.089Z, 57.5
2023-05-05T14:58:00.128Z, 57.2
2023-05-05T15:00:00.179Z, 57.4
2023-05-05T15:02:00.264Z, 56.8
2023-05-05T15:04:00.255Z, 57.2
2023-05-05T15:06:00.119Z, 57.6
2023-05-05T15:08:00.123Z, 58
2023-05-05T15:10:00.152Z, 57.6
2023-05-05T15:12:00.127Z, 57.5
2023-05-05T15:14:00.119Z, 57.7
2023-05-05T15:16:00.185Z, 58.6
2023-05-05T15:18:00.135Z, 58.4
2023-05-05T15:20:00.115Z, 58.2
2023-05-05T15:22:00.116Z, 58.1
2023-05-05T15:24:00.068Z, 58.7
2023-05-05T15:26:00.062Z, 59.1
2023-05-05T15:28:00.062Z, 59.7
2023-05-05T15:30:00.082Z, 58.7
2023-05-05T15:32:00.242Z, 59.5
2023-05-05T15:34:00.060Z, 58.9
2023-05-05T15:36:00.074Z, 58.7
2023-05-05T15:38:00.053Z, 58.9
2023-05-05T15:40:00.057Z, 59.1
2023-05-05T15:42:00.064Z, 58.9
2023-05-05T15:44:00.048Z, 60
2023-05-05T15:46:00.053Z, 59.7
2023-05-05T15:48:00.103Z, 59.4
2023-05-05T15:50:00.049Z, 58.7
2023-05-05T15:52:00.116Z, 58.9
2023-05-05T15:54:00.144Z, 58.5
2023-05-05T15:56:00.111Z, 58.5
2023-05-05T15:58:00.135Z, 58.6
2023-05-05T16:00:00.157Z, 58.6
2023-05-05T16:02:00.142Z, 59.3
2023-05-05T16:04:00.153Z, 58.9
2023-05-05T16:06:00.123Z, 59.4
2023-05-05T16:08:00.165Z, 57.4
2023-05-05T16:10:00.117Z, 58.4
2023-05-05T16:12:00.092Z, 58.3
2023-05-05T16:14:00.123Z, 59
2023-05-05T16:16:00.122Z, 55.7
2023-05-05T16:18:00.150Z, 56.4
2023-05-05T16:20:00.098Z, 57.4
2023-05-05T16:22:00.078Z, 58.6
2023-05-05T16:24:00.064Z, 58.7
2023-05-05T16:26:00.056Z, 58.6
2023-05-05T16:28:00.097Z, 57.7
2023-05-05T16:30:00.074Z, 56.7
2023-05-05T16:32:00.094Z, 57
2023-05-05T16:34:00.053Z, 56.8
2023-05-05T16:36:00.039Z, 57.1
2023-05-05T16:38:00.048Z, 57
2023-05-05T16:40:00.106Z, 57.5
2023-05-05T16:42:00.062Z, 57.8
2023-05-05T16:44:00.121Z, 58.7
2023-05-05T16:46:00.110Z, 57.2
2023-05-05T16:48:00.100Z, 57.4
2023-05-05T16:50:00.187Z, 57.7
2023-05-05T16:52:00.140Z, 57.7
2023-05-05T16:54:00.132Z, 58.3
2023-05-05T16:56:00.111Z, 59
2023-05-05T16:58:00.134Z, 58.8
2023-05-05T17:00:00.207Z, 58.9
2023-05-05T17:02:00.196Z, 58.1
2023-05-05T17:04:00.100Z, 57.1
2023-05-05T17:06:00.363Z, 56.3
2023-05-05T17:08:00.106Z, 54.8
2023-05-05T17:10:00.172Z, 53.8
2023-05-05T17:12:00.125Z, 54.9
2023-05-05T17:14:00.113Z, 54.8
2023-05-05T17:16:00.209Z, 54.9
2023-05-05T17:18:00.219Z, 55
2023-05-05T17:20:00.150Z, 55.5
2023-05-05T17:22:00.059Z, 54.6
2023-05-05T17:24:00.056Z, 55.1
2023-05-05T17:26:00.037Z, 54.6
2023-05-05T17:28:00.037Z, 54.6
2023-05-05T17:30:00.073Z, 55.3
2023-05-05T17:32:00.106Z, 55.5
2023-05-05T17:34:00.069Z, 55.5
2023-05-05T17:36:00.063Z, 55.1
2023-05-05T17:38:00.060Z, 54.7
2023-05-05T17:40:00.035Z, 55.7
2023-05-05T17:42:00.067Z, 57.4
2023-05-05T17:44:00.042Z, 57.6
2023-05-05T17:46:00.114Z, 58
2023-05-05T17:48:00.108Z, 57.8
2023-05-05T17:50:00.051Z, 57.2
2023-05-05T17:52:00.130Z, 57.6
2023-05-05T17:54:00.125Z, 57.7
2023-05-05T17:56:00.121Z, 58.5
2023-05-05T17:58:00.125Z, 58.9
2023-05-05T18:00:00.164Z, 59.9
2023-05-05T18:02:00.162Z, 57.2
2023-05-05T18:04:00.111Z, 59
2023-05-05T18:06:00.163Z, 58.8
2023-05-05T18:08:00.157Z, 58.8
2023-05-05T18:10:00.162Z, 59.3
2023-05-05T18:12:00.145Z, 59.9
2023-05-05T18:14:00.133Z, 59.4
2023-05-05T18:16:00.149Z, 58.4
2023-05-05T18:18:00.135Z, 58.6
2023-05-05T18:20:00.194Z, 58.4
2023-05-05T18:22:00.090Z, 58.3
2023-05-05T18:24:11.628Z, 58.6
2023-05-05T18:26:00.073Z, 59.1
2023-05-05T18:28:00.045Z, 59.4
2023-05-05T18:30:00.057Z, 59.4
2023-05-05T18:32:00.046Z, 59.3
2023-05-05T18:34:00.056Z, 59.5
2023-05-05T18:36:00.091Z, 59.7
2023-05-05T18:38:00.055Z, 59.7
2023-05-05T18:40:00.057Z, 59.7
2023-05-05T18:42:00.052Z, 59.4
2023-05-05T18:44:00.064Z, 59.2
2023-05-05T18:46:00.047Z, 58.3
2023-05-05T18:48:00.134Z, 58.3
2023-05-05T18:50:00.050Z, 58.1
2023-05-05T18:52:00.133Z, 57.9
2023-05-05T18:54:00.139Z, 58.3
2023-05-05T18:56:00.156Z, 58.2
2023-05-05T18:58:00.153Z, 57.7
2023-05-05T19:00:00.150Z, 57.4
2023-05-05T19:02:00.108Z, 57.5
2023-05-05T19:04:00.187Z, 58.4
2023-05-05T19:06:00.135Z, 58.7
2023-05-05T19:08:00.153Z, 59
2023-05-05T19:10:00.162Z, 59.8
2023-05-05T19:12:00.143Z, 61.4
2023-05-05T19:14:00.167Z, 61.8
2023-05-05T19:16:00.150Z, 62
2023-05-05T19:18:00.149Z, 62.2
2023-05-05T19:20:00.120Z, 62.4
2023-05-05T19:22:02.195Z, 62.6
2023-05-05T19:24:00.108Z, 63.4
2023-05-05T19:26:00.059Z, 63.6
2023-05-05T19:28:00.070Z, 63.9
2023-05-05T19:30:00.089Z, 63.7
2023-05-05T19:32:00.147Z, 63.5
2023-05-05T19:34:00.065Z, 63.5
2023-05-05T19:36:00.080Z, 63.4
2023-05-05T19:38:00.065Z, 63.1
2023-05-05T19:40:00.063Z, 62.8
2023-05-05T19:42:00.059Z, 62.6
2023-05-05T19:44:00.057Z, 63.1
2023-05-05T19:46:00.096Z, 64.6
2023-05-05T19:48:00.074Z, 64.3
2023-05-05T19:50:00.047Z, 64.1
2023-05-05T19:52:00.091Z, 64.9
2023-05-05T19:54:00.106Z, 64.8
2023-05-05T19:56:00.117Z, 65.5
2023-05-05T19:58:00.127Z, 64.9
2023-05-05T20:00:00.139Z, 64.5
2023-05-05T20:02:00.194Z, 63.9
2023-05-05T20:04:00.197Z, 64.4
2023-05-05T20:06:00.147Z, 64.7
2023-05-05T20:08:00.130Z, 65
2023-05-05T20:10:00.183Z, 64.8
2023-05-05T20:12:00.144Z, 64.7
2023-05-05T20:14:00.104Z, 64.3
2023-05-05T20:16:00.160Z, 64.4
2023-05-05T20:18:00.214Z, 64.3
2023-05-05T20:20:00.141Z, 64.1
2023-05-05T20:22:00.087Z, 63.9
2023-05-05T20:24:00.210Z, 63.3
2023-05-05T20:26:00.044Z, 64.2
2023-05-05T20:28:00.049Z, 64.6
2023-05-05T20:30:00.056Z, 64.3
2023-05-05T20:32:00.072Z, 64.6
2023-05-05T20:34:00.091Z, 64.8
2023-05-05T20:36:00.077Z, 64.9
2023-05-05T20:38:00.073Z, 65.1
2023-05-05T20:40:00.065Z, 65.5
2023-05-05T20:42:00.048Z, 67.6
2023-05-05T20:44:00.039Z, 69.9
2023-05-05T20:46:00.045Z, 70.8
2023-05-05T20:48:00.075Z, 71.4
2023-05-05T20:50:00.074Z, 71.2
2023-05-05T20:52:00.106Z, 71.1
2023-05-05T20:54:00.139Z, 71.5
2023-05-05T20:56:00.144Z, 72.2
2023-05-05T20:58:00.138Z, 72
2023-05-05T21:00:00.125Z, 73
2023-05-05T21:02:00.156Z, 74
2023-05-05T21:04:00.109Z, 75.6
2023-05-05T21:06:00.150Z, 76.4
2023-05-05T21:08:01.068Z, 77
2023-05-05T21:10:00.158Z, 76.8
2023-05-05T21:12:00.149Z, 75.9
2023-05-05T21:14:00.107Z, 75.1
2023-05-05T21:16:00.100Z, 74.3
2023-05-05T21:18:00.136Z, 73.8
2023-05-05T21:20:00.145Z, 73.3
2023-05-05T21:22:00.090Z, 72.9
2023-05-05T21:24:00.092Z, 72.8
2023-05-05T21:26:00.077Z, 72.5
2023-05-05T21:28:00.061Z, 72.7
2023-05-05T21:30:00.085Z, 72.7
2023-05-05T21:32:00.096Z, 72.9
2023-05-05T21:34:00.055Z, 73.2
2023-05-05T21:36:00.065Z, 73.4
2023-05-05T21:38:00.055Z, 73.7
2023-05-05T21:40:00.055Z, 74.1
2023-05-05T21:42:00.071Z, 74.5
2023-05-05T21:44:00.065Z, 74.9
2023-05-05T21:46:00.162Z, 74.6
2023-05-05T21:48:00.183Z, 73.8
2023-05-05T21:50:00.064Z, 73.9
2023-05-05T21:52:00.116Z, 74
2023-05-05T21:54:00.114Z, 74
2023-05-05T21:56:00.148Z, 74.7
2023-05-05T21:58:00.098Z, 75.6
2023-05-05T22:00:00.160Z, 76.3
2023-05-05T22:02:00.181Z, 76.3
2023-05-05T22:04:00.183Z, 75.6
2023-05-05T22:06:00.132Z, 74.9
2023-05-05T22:08:00.152Z, 74.7
2023-05-05T22:10:00.206Z, 74.5
2023-05-05T22:12:00.148Z, 73.9
2023-05-05T22:14:00.130Z, 73.8
2023-05-05T22:16:00.180Z, 73.3
2023-05-05T22:18:00.211Z, 73.4
2023-05-05T22:20:00.167Z, 73.3
2023-05-05T22:22:00.072Z, 73.6
2023-05-05T22:24:00.151Z, 73.9
2023-05-05T22:26:00.030Z, 74.5
2023-05-05T22:28:00.060Z, 75.3
2023-05-05T22:30:00.049Z, 76.5
2023-05-05T22:32:00.044Z, 78.1
2023-05-05T22:34:00.052Z, 79.6
2023-05-05T22:36:00.076Z, 81.3
2023-05-05T22:38:00.055Z, 82.4
2023-05-05T22:40:00.040Z, 82.4
2023-05-05T22:42:00.059Z, 82
2023-05-05T22:44:00.059Z, 81.4
2023-05-05T22:46:00.101Z, 81.1
2023-05-05T22:48:00.213Z, 81.2
2023-05-05T22:50:00.046Z, 81.5
2023-05-05T22:52:00.101Z, 81.6
2023-05-05T22:54:00.131Z, 81.1
2023-05-05T22:56:00.175Z, 80.9
2023-05-05T22:58:00.140Z, 80.9
2023-05-05T23:00:00.167Z, 80.8
2023-05-05T23:02:00.139Z, 80.7
2023-05-05T23:04:00.163Z, 80.8
2023-05-05T23:06:00.173Z, 80.9
2023-05-05T23:08:00.112Z, 80.6
2023-05-05T23:10:00.146Z, 79.9
2023-05-05T23:12:00.112Z, 80
2023-05-05T23:14:00.114Z, 80.1
2023-05-05T23:16:00.125Z, 80.7
2023-05-05T23:18:00.191Z, 81.6
2023-05-05T23:20:00.169Z, 81.8
2023-05-05T23:22:00.086Z, 81.6
2023-05-05T23:24:00.146Z, 81.6
2023-05-05T23:26:00.059Z, 82.4
2023-05-05T23:28:00.078Z, 83
2023-05-05T23:30:00.115Z, 83
2023-05-05T23:32:00.073Z, 82.5
2023-05-05T23:34:00.062Z, 82.2
2023-05-05T23:36:00.083Z, 82.3
2023-05-05T23:38:00.043Z, 82.9
2023-05-05T23:40:00.065Z, 83.3
2023-05-05T23:42:00.066Z, 83.7
2023-05-05T23:44:00.064Z, 83.9
2023-05-05T23:46:00.106Z, 83.7
2023-05-05T23:48:00.098Z, 83.6
2023-05-05T23:50:00.064Z, 83.2
2023-05-05T23:52:00.128Z, 83.5
2023-05-05T23:54:00.134Z, 85
2023-05-05T23:56:00.097Z, 86
2023-05-05T23:58:00.144Z, 86.3
